createdAt,value
2018-10-11T00:01:51.462Z,14.93
2018-10-11T00:04:20.444Z,14.60
2018-10-11T00:06:49.265Z,13.30
2018-10-11T00:09:18.405Z,14.20
2018-10-11T00:11:47.220Z,13.40
2018-10-11T00:14:16.005Z,13.97
2018-10-11T00:16:44.801Z,13.97
2018-10-11T00:19:13.616Z,15.33
2018-10-11T00:21:42.721Z,15.37
2018-10-11T00:24:11.529Z,14.33
2018-10-11T00:26:40.361Z,15.00
2018-10-11T00:29:09.152Z,13.63
2018-10-11T00:31:38.000Z,14.83
2018-10-11T00:34:06.826Z,14.20
2018-10-11T00:36:35.611Z,14.67
2018-10-11T00:39:06.153Z,13.90
2018-10-11T00:41:35.272Z,12.93
2018-10-11T00:44:04.189Z,13.53
2018-10-11T00:46:33.029Z,13.90
2018-10-11T00:49:01.856Z,11.83
2018-10-11T00:51:30.781Z,13.00
2018-10-11T00:53:59.600Z,13.03
2018-10-11T00:56:28.414Z,12.10
2018-10-11T00:58:57.225Z,12.53
2018-10-11T01:01:26.092Z,11.30
2018-10-11T01:03:54.925Z,11.77
2018-10-11T01:06:23.720Z,11.20
2018-10-11T01:08:52.532Z,11.30
2018-10-11T01:11:21.364Z,10.63
2018-10-11T01:13:50.160Z,9.57
2018-10-11T01:16:19.002Z,10.77
2018-10-11T01:18:49.069Z,9.87
2018-10-11T01:21:17.884Z,9.30
2018-10-11T01:23:46.859Z,9.63
2018-10-11T01:26:15.599Z,9.00
2018-10-11T01:28:44.385Z,7.43
2018-10-11T01:31:18.499Z,7.37
2018-10-11T01:33:47.346Z,6.60
2018-10-11T01:36:16.144Z,6.10
2018-10-11T01:38:45.875Z,5.20
2018-10-11T01:41:14.613Z,4.77
2018-10-11T01:43:43.469Z,4.87
2018-10-11T01:46:12.368Z,5.50
2018-10-11T01:48:41.361Z,4.90
2018-10-11T01:51:10.673Z,4.70
2018-10-11T01:53:39.618Z,4.67
2018-10-11T01:56:08.890Z,4.40
2018-10-11T01:58:37.952Z,4.00
2018-10-11T02:01:06.802Z,4.50
2018-10-11T02:03:35.609Z,4.57
2018-10-11T02:06:04.458Z,5.77
2018-10-11T02:08:33.308Z,5.60
2018-10-11T02:11:02.137Z,5.27
2018-10-11T02:13:30.938Z,5.20
2018-10-11T02:15:59.861Z,6.00
2018-10-11T02:18:28.738Z,5.47
2018-10-11T02:20:57.578Z,6.67
2018-10-11T02:23:26.420Z,5.30
2018-10-11T02:25:55.293Z,6.03
2018-10-11T02:28:24.134Z,5.63
2018-10-11T02:30:52.937Z,4.77
2018-10-11T02:33:21.877Z,5.70
2018-10-11T02:35:50.742Z,5.73
2018-10-11T02:38:19.541Z,6.27
2018-10-11T02:40:48.397Z,4.83
2018-10-11T02:43:17.198Z,5.60
2018-10-11T02:45:46.000Z,4.93
2018-10-11T02:48:14.806Z,5.40
2018-10-11T02:50:43.616Z,5.13
2018-10-11T02:53:12.509Z,5.67
2018-10-11T02:55:41.396Z,5.27
2018-10-11T02:58:15.786Z,4.50
2018-10-11T03:00:44.601Z,3.73
2018-10-11T03:03:14.392Z,3.10
2018-10-11T03:05:43.995Z,3.27
2018-10-11T03:08:15.424Z,2.80
2018-10-11T03:10:44.313Z,2.70
2018-10-11T03:13:13.981Z,2.67
2018-10-11T03:15:43.332Z,3.37
2018-10-11T03:18:12.968Z,3.67
2018-10-11T03:20:42.745Z,2.47
2018-10-11T03:23:12.197Z,2.03
2018-10-11T03:25:42.068Z,2.37
2018-10-11T03:28:11.776Z,2.13
2018-10-11T03:30:40.867Z,2.20
2018-10-11T03:33:09.968Z,2.00
2018-10-11T03:35:39.057Z,2.40
2018-10-11T03:38:07.848Z,1.90
2018-10-11T03:40:36.680Z,2.40
2018-10-11T03:43:05.477Z,1.90
2018-10-11T03:45:34.328Z,2.13
2018-10-11T03:48:03.112Z,2.10
2018-10-11T03:50:31.895Z,2.27
2018-10-11T03:53:00.724Z,2.10
2018-10-11T03:55:29.531Z,1.70
2018-10-11T03:57:58.329Z,2.30
2018-10-11T04:00:27.245Z,1.87
2018-10-11T04:02:56.256Z,2.23
2018-10-11T04:05:25.046Z,3.00
2018-10-11T04:07:53.837Z,2.20
2018-10-11T04:10:22.658Z,3.10
2018-10-11T04:12:51.440Z,2.17
2018-10-11T04:15:20.280Z,2.20
2018-10-11T04:17:49.093Z,2.00
2018-10-11T04:20:17.883Z,2.50
2018-10-11T04:22:46.704Z,2.43
2018-10-11T04:25:15.904Z,2.77
2018-10-11T04:27:44.794Z,2.00
2018-10-11T04:30:13.715Z,2.23
2018-10-11T04:32:42.645Z,2.27
2018-10-11T04:35:11.465Z,2.40
2018-10-11T04:37:40.388Z,1.80
2018-10-11T04:40:09.232Z,2.03
2018-10-11T04:42:38.103Z,2.10
2018-10-11T04:45:06.900Z,2.30
2018-10-11T04:47:35.716Z,2.20
2018-10-11T04:50:04.536Z,1.90
2018-10-11T04:52:33.492Z,2.30
2018-10-11T04:55:02.301Z,2.60
2018-10-11T04:57:31.100Z,2.20
2018-10-11T04:59:59.946Z,1.80
2018-10-11T05:02:28.741Z,2.40
2018-10-11T05:04:57.537Z,2.10
2018-10-11T05:07:26.440Z,2.10
2018-10-11T05:09:55.289Z,2.10
2018-10-11T05:12:24.131Z,2.10
2018-10-11T05:14:52.991Z,2.30
2018-10-11T05:17:21.872Z,4.13
2018-10-11T05:19:50.732Z,2.10
2018-10-11T05:22:19.572Z,3.90
2018-10-11T05:24:48.398Z,2.00
2018-10-11T05:27:17.241Z,2.73
2018-10-11T05:29:46.091Z,2.37
2018-10-11T05:32:15.088Z,2.63
2018-10-11T05:34:43.852Z,2.20
2018-10-11T05:37:12.708Z,2.00
2018-10-11T05:39:41.660Z,2.00
2018-10-11T05:42:10.496Z,1.90
2018-10-11T05:44:39.381Z,2.13
2018-10-11T05:47:08.257Z,2.67
2018-10-11T05:49:37.120Z,2.77
2018-10-11T05:52:05.960Z,2.10
2018-10-11T05:54:34.774Z,1.73
2018-10-11T05:57:03.616Z,1.80
2018-10-11T05:59:32.483Z,2.00
2018-10-11T06:02:01.380Z,2.17
2018-10-11T06:04:30.210Z,1.90
2018-10-11T06:06:59.122Z,2.83
2018-10-11T06:09:28.025Z,2.23
2018-10-11T06:11:57.028Z,2.07
2018-10-11T06:14:25.882Z,2.07
2018-10-11T06:16:54.781Z,2.00
2018-10-11T06:19:23.620Z,2.20
2018-10-11T06:21:52.460Z,2.13
2018-10-11T06:24:21.300Z,2.00
2018-10-11T06:26:50.141Z,2.50
2018-10-11T06:29:19.024Z,2.60
2018-10-11T06:31:47.924Z,2.27
2018-10-11T06:34:16.908Z,2.17
2018-10-11T06:36:45.796Z,2.10
2018-10-11T06:39:14.655Z,1.97
2018-10-11T06:41:43.604Z,2.47
2018-10-11T06:44:12.454Z,2.40
2018-10-11T06:46:41.305Z,2.20
2018-10-11T06:49:10.176Z,2.57
2018-10-11T06:51:39.012Z,2.07
2018-10-11T06:54:07.877Z,1.70
2018-10-11T06:56:36.704Z,2.00
2018-10-11T06:59:05.632Z,2.03
2018-10-11T07:01:34.515Z,2.13
2018-10-11T07:04:03.300Z,2.50
2018-10-11T07:06:32.100Z,2.53
2018-10-11T07:09:00.917Z,2.37
2018-10-11T07:11:29.712Z,2.37
2018-10-11T07:13:58.602Z,2.13
2018-10-11T07:16:27.412Z,2.30
2018-10-11T07:18:56.184Z,2.33
2018-10-11T07:21:25.003Z,2.23
2018-10-11T07:23:53.829Z,1.97
2018-10-11T07:26:22.613Z,1.90
2018-10-11T07:28:51.441Z,1.90
2018-10-11T07:31:20.250Z,2.03
2018-10-11T07:33:49.048Z,2.53
2018-10-11T07:36:17.828Z,2.43
2018-10-11T07:38:46.637Z,1.83
2018-10-11T07:41:15.445Z,2.30
2018-10-11T07:43:44.237Z,2.83
2018-10-11T07:46:13.037Z,2.33
2018-10-11T07:48:41.845Z,1.90
2018-10-11T07:51:10.656Z,2.60
2018-10-11T07:53:39.504Z,2.77
2018-10-11T07:56:08.418Z,2.23
2018-10-11T07:58:37.193Z,2.20
2018-10-11T08:01:06.025Z,1.90
2018-10-11T08:03:34.836Z,2.50
2018-10-11T08:06:03.697Z,2.17
2018-10-11T08:08:32.570Z,2.07
2018-10-11T08:11:01.472Z,2.17
2018-10-11T08:13:30.240Z,1.73
2018-10-11T08:15:59.072Z,2.70
2018-10-11T08:18:27.891Z,1.87
2018-10-11T08:20:57.085Z,1.77
2018-10-11T08:23:25.976Z,2.00
2018-10-11T08:25:55.183Z,1.80
2018-10-11T08:28:23.635Z,2.37
2018-10-11T08:30:52.497Z,1.80
2018-10-11T08:33:21.853Z,1.97
2018-10-11T08:35:50.659Z,1.97
2018-10-11T08:38:19.688Z,2.03
2018-10-11T08:40:48.484Z,1.90
2018-10-11T08:43:17.413Z,2.47
2018-10-11T08:45:46.222Z,1.80
2018-10-11T08:48:15.016Z,1.73
2018-10-11T08:50:43.853Z,1.60
2018-10-11T08:53:12.773Z,3.37
2018-10-11T08:55:41.900Z,1.97
2018-10-11T08:58:10.549Z,2.00
2018-10-11T09:00:39.436Z,2.00
2018-10-11T09:03:08.216Z,1.83
2018-10-11T09:05:37.008Z,1.83
2018-10-11T09:08:05.916Z,3.93
2018-10-11T09:10:38.345Z,2.30
2018-10-11T09:13:03.835Z,2.60
2018-10-11T09:15:32.634Z,1.93
2018-10-11T09:18:01.557Z,1.90
2018-10-11T09:20:30.367Z,2.70
2018-10-11T09:22:59.177Z,2.53
2018-10-11T09:25:27.996Z,2.23
2018-10-11T09:27:56.820Z,2.10
2018-10-11T09:30:25.710Z,1.80
2018-10-11T09:32:54.876Z,1.90
2018-10-11T09:35:23.807Z,1.97
2018-10-11T09:37:52.744Z,2.07
2018-10-11T09:40:21.574Z,2.03
2018-10-11T09:42:50.368Z,2.30
2018-10-11T09:45:19.456Z,2.30
2018-10-11T09:47:48.259Z,1.87
2018-10-11T09:50:17.060Z,2.30
2018-10-11T09:52:45.952Z,2.10
2018-10-11T09:55:14.738Z,1.80
2018-10-11T09:57:43.585Z,2.40
2018-10-11T10:00:17.828Z,1.90
2018-10-11T10:02:47.700Z,1.73
2018-10-11T10:05:16.492Z,1.87
2018-10-11T10:07:45.325Z,2.57
2018-10-11T10:10:14.121Z,2.40
2018-10-11T10:12:42.905Z,2.10
2018-10-11T10:15:11.750Z,1.87
2018-10-11T10:17:40.689Z,2.83
2018-10-11T10:20:09.536Z,2.30
2018-10-11T10:22:38.751Z,2.43
2018-10-11T10:25:07.648Z,2.60
2018-10-11T10:27:36.482Z,2.10
2018-10-11T10:30:11.041Z,2.03
2018-10-11T10:32:40.289Z,2.23
2018-10-11T10:35:09.184Z,2.37
2018-10-11T10:37:38.036Z,2.30
2018-10-11T10:40:06.931Z,2.00
2018-10-11T10:42:35.850Z,2.63
2018-10-11T10:45:05.109Z,2.07
2018-10-11T10:47:34.009Z,2.30
2018-10-11T10:50:02.858Z,2.50
2018-10-11T10:52:31.692Z,1.77
2018-10-11T10:55:00.477Z,1.90
2018-10-11T10:57:29.261Z,2.53
2018-10-11T10:59:58.086Z,2.03
2018-10-11T11:02:26.951Z,2.40
2018-10-11T11:04:55.738Z,2.10
2018-10-11T11:07:24.819Z,2.90
2018-10-11T11:09:53.959Z,2.53
2018-10-11T11:12:22.850Z,2.63
2018-10-11T11:14:51.678Z,2.60
2018-10-11T11:17:20.518Z,2.50
2018-10-11T11:19:49.350Z,2.10
2018-10-11T11:22:18.211Z,2.93
2018-10-11T11:24:46.997Z,2.90
2018-10-11T11:27:15.805Z,3.00
2018-10-11T11:29:44.663Z,2.43
2018-10-11T11:32:13.530Z,2.50
2018-10-11T11:34:42.349Z,2.70
2018-10-11T11:37:11.172Z,3.83
2018-10-11T11:39:39.969Z,2.70
2018-10-11T11:42:08.865Z,2.60
2018-10-11T11:44:37.728Z,2.50
2018-10-11T11:47:06.593Z,2.03
2018-10-11T11:49:35.413Z,2.70
2018-10-11T11:52:04.328Z,2.90
2018-10-11T11:54:33.105Z,2.93
2018-10-11T11:57:01.916Z,2.20
2018-10-11T11:59:30.745Z,2.53
2018-10-11T12:01:59.562Z,3.07
2018-10-11T12:04:28.364Z,3.13
2018-10-11T12:06:57.176Z,2.50
2018-10-11T12:09:26.000Z,3.00
2018-10-11T12:11:54.848Z,2.33
2018-10-11T12:14:23.677Z,3.07
2018-10-11T12:16:52.465Z,2.60
2018-10-11T12:19:21.701Z,2.70
2018-10-11T12:21:50.657Z,2.93
2018-10-11T12:24:19.445Z,2.80
2018-10-11T12:26:48.277Z,3.23
2018-10-11T12:29:17.163Z,2.87
2018-10-11T12:31:46.025Z,3.00
2018-10-11T12:34:14.812Z,2.93
2018-10-11T12:36:43.665Z,2.73
2018-10-11T12:39:12.504Z,3.00
2018-10-11T12:41:41.340Z,2.47
2018-10-11T12:44:10.207Z,3.23
2018-10-11T12:46:40.929Z,2.80
2018-10-11T12:49:08.329Z,2.30
2018-10-11T12:51:37.388Z,2.70
2018-10-11T12:54:06.417Z,2.63
2018-10-11T12:56:35.334Z,3.10
2018-10-11T12:59:04.105Z,2.27
2018-10-11T13:01:33.072Z,1.93
2018-10-11T13:04:01.906Z,2.70
2018-10-11T13:06:30.720Z,3.20
2018-10-11T13:08:59.553Z,2.40
2018-10-11T13:11:28.392Z,2.37
2018-10-11T13:13:57.225Z,2.40
2018-10-11T13:16:26.040Z,2.60
2018-10-11T13:18:54.890Z,2.83
2018-10-11T13:21:23.796Z,2.43
2018-10-11T13:23:52.590Z,2.93
2018-10-11T13:26:21.496Z,2.50
2018-10-11T13:28:50.377Z,2.20
2018-10-11T13:31:19.216Z,2.40
2018-10-11T13:33:51.819Z,2.13
2018-10-11T13:36:16.969Z,2.13
2018-10-11T13:38:45.825Z,2.07
2018-10-11T13:41:14.767Z,2.70
2018-10-11T13:43:43.717Z,2.63
2018-10-11T13:46:12.735Z,2.70
2018-10-11T13:48:41.598Z,3.50
2018-10-11T13:51:10.538Z,2.37
2018-10-11T13:53:39.409Z,2.33
2018-10-11T13:56:08.302Z,2.47
2018-10-11T13:58:37.266Z,2.73
2018-10-11T14:01:06.190Z,3.10
2018-10-11T14:03:35.025Z,3.03
2018-10-11T14:06:03.943Z,2.83
2018-10-11T14:08:32.802Z,2.77
2018-10-11T14:11:01.765Z,3.27
2018-10-11T14:13:30.665Z,2.67
2018-10-11T14:16:00.508Z,3.40
2018-10-11T14:18:29.428Z,2.90
2018-10-11T14:20:58.365Z,3.00
2018-10-11T14:23:27.274Z,2.63
2018-10-11T14:25:56.273Z,2.87
2018-10-11T14:28:25.121Z,2.77
2018-10-11T14:30:54.023Z,3.10
2018-10-11T14:33:22.905Z,4.23
2018-10-11T14:35:52.080Z,3.57
2018-10-11T14:38:21.444Z,3.17
2018-10-11T14:40:50.801Z,3.40
2018-10-11T14:43:19.834Z,3.20
2018-10-11T14:45:48.650Z,3.27
2018-10-11T14:48:17.471Z,2.97
2018-10-11T14:50:46.281Z,3.27
2018-10-11T14:53:15.165Z,4.33
2018-10-11T14:55:44.037Z,3.03
2018-10-11T14:58:13.128Z,3.30
2018-10-11T15:00:41.941Z,3.10
2018-10-11T15:03:10.869Z,3.10
2018-10-11T15:05:39.712Z,3.40
2018-10-11T15:08:08.616Z,3.27
2018-10-11T15:10:37.596Z,3.30
2018-10-11T15:13:06.500Z,3.57
2018-10-11T15:15:35.365Z,3.50
2018-10-11T15:18:04.344Z,3.13
2018-10-11T15:20:33.186Z,3.30
2018-10-11T15:23:02.365Z,3.00
2018-10-11T15:25:31.409Z,3.40
2018-10-11T15:28:00.323Z,3.37
2018-10-11T15:30:29.107Z,3.60
2018-10-11T15:32:57.956Z,3.60
2018-10-11T15:35:26.864Z,3.17
2018-10-11T15:37:55.736Z,3.13
2018-10-11T15:40:24.616Z,3.40
2018-10-11T15:42:53.521Z,3.17
2018-10-11T15:45:22.373Z,3.43
2018-10-11T15:47:51.261Z,3.00
2018-10-11T15:50:20.159Z,3.27
2018-10-11T15:52:48.980Z,3.67
2018-10-11T15:55:17.803Z,4.00
2018-10-11T15:57:46.605Z,4.13
2018-10-11T16:00:15.448Z,4.17
2018-10-11T16:02:44.324Z,4.40
2018-10-11T16:05:13.200Z,3.70
2018-10-11T16:07:42.061Z,4.40
2018-10-11T16:10:10.886Z,5.33
2018-10-11T16:12:46.223Z,4.63
2018-10-11T16:15:15.057Z,4.73
2018-10-11T16:17:43.989Z,4.73
2018-10-11T16:20:12.765Z,3.80
2018-10-11T16:22:41.601Z,3.90
2018-10-11T16:25:10.517Z,4.00
2018-10-11T16:27:39.369Z,3.50
2018-10-11T16:30:08.262Z,3.57
2018-10-11T16:32:37.117Z,4.50
2018-10-11T16:35:05.923Z,3.73
2018-10-11T16:37:34.907Z,4.13
2018-10-11T16:40:03.827Z,4.17
2018-10-11T16:42:32.663Z,4.10
2018-10-11T16:45:01.690Z,4.27
2018-10-11T16:47:30.576Z,4.83
2018-10-11T16:49:59.482Z,3.50
2018-10-11T16:52:28.344Z,4.30
2018-10-11T16:54:57.153Z,4.00
2018-10-11T16:57:25.952Z,3.90
2018-10-11T16:59:54.768Z,3.80
2018-10-11T17:02:23.624Z,3.97
2018-10-11T17:04:52.494Z,3.73
2018-10-11T17:07:21.362Z,3.20
2018-10-11T17:09:50.216Z,3.77
2018-10-11T17:12:18.979Z,3.67
2018-10-11T17:14:47.779Z,3.80
2018-10-11T17:17:16.606Z,3.87
2018-10-11T17:19:45.487Z,4.17
2018-10-11T17:22:14.341Z,4.53
2018-10-11T17:24:43.203Z,5.03
2018-10-11T17:27:12.029Z,4.70
2018-10-11T17:29:41.059Z,4.93
2018-10-11T17:32:09.855Z,4.97
2018-10-11T17:34:38.662Z,4.20
2018-10-11T17:37:07.560Z,4.60
2018-10-11T17:39:36.441Z,4.73
2018-10-11T17:42:05.351Z,4.13
2018-10-11T17:44:34.333Z,4.10
2018-10-11T17:47:03.193Z,4.03
2018-10-11T17:49:31.992Z,4.00
2018-10-11T17:52:02.251Z,3.73
2018-10-11T17:54:32.457Z,3.30
2018-10-11T17:57:01.626Z,3.03
2018-10-11T17:59:30.491Z,3.27
2018-10-11T18:01:59.333Z,3.13
2018-10-11T18:04:28.269Z,2.70
2018-10-11T18:06:57.087Z,3.00
2018-10-11T18:09:26.013Z,2.87
2018-10-11T18:11:56.904Z,3.20
2018-10-11T18:14:29.526Z,3.30
2018-10-11T18:17:00.083Z,4.50
2018-10-11T18:19:29.085Z,5.97
2018-10-11T18:22:01.812Z,5.70
2018-10-11T18:24:31.277Z,6.00
2018-10-11T18:27:00.405Z,6.27
2018-10-11T18:29:29.387Z,6.77
2018-10-11T18:31:58.240Z,6.27
2018-10-11T18:34:27.068Z,5.30
2018-10-11T18:36:55.913Z,4.70
2018-10-11T18:39:24.796Z,4.43
2018-10-11T18:41:53.665Z,4.50
2018-10-11T18:44:22.602Z,4.23
2018-10-11T18:46:51.476Z,4.60
2018-10-11T18:49:20.269Z,5.13
2018-10-11T18:51:49.190Z,4.97
2018-10-11T18:54:17.984Z,4.10
2018-10-11T18:56:46.889Z,4.07
2018-10-11T18:59:15.756Z,4.00
2018-10-11T19:01:44.614Z,2.77
2018-10-11T19:04:13.459Z,3.10
2018-10-11T19:06:42.301Z,2.10
2018-10-11T19:09:11.159Z,2.70
2018-10-11T19:11:40.336Z,2.00
2018-10-11T19:14:09.173Z,1.83
2018-10-11T19:16:38.064Z,1.63
2018-10-11T19:19:06.969Z,1.63
2018-10-11T19:21:35.853Z,2.30
2018-10-11T19:24:04.716Z,1.60
2018-10-11T19:26:33.573Z,1.60
2018-10-11T19:29:02.424Z,1.70
2018-10-11T19:31:31.227Z,1.87
2018-10-11T19:34:00.152Z,1.40
2018-10-11T19:36:29.040Z,1.30
2018-10-11T19:38:57.893Z,1.70
2018-10-11T19:41:26.725Z,1.70
2018-10-11T19:43:55.586Z,2.40
2018-10-11T19:46:24.469Z,1.40
2018-10-11T19:48:53.325Z,1.60
2018-10-11T19:51:22.219Z,1.60
2018-10-11T19:53:51.070Z,1.83
2018-10-11T19:56:19.869Z,1.60
2018-10-11T19:58:48.717Z,1.07
2018-10-11T20:01:17.548Z,1.67
2018-10-11T20:03:46.485Z,1.20
2018-10-11T20:06:15.523Z,1.77
2018-10-11T20:08:44.269Z,1.20
2018-10-11T20:11:13.072Z,1.10
2018-10-11T20:13:41.904Z,1.40
2018-10-11T20:16:10.751Z,1.57
2018-10-11T20:18:39.609Z,2.00
2018-10-11T20:23:43.649Z,1.70
2018-10-11T20:26:12.483Z,1.50
2018-10-11T20:28:41.297Z,1.97
2018-10-11T20:31:10.144Z,1.50
2018-10-11T20:33:38.989Z,1.30
2018-10-11T20:36:07.792Z,1.77
2018-10-11T20:38:36.670Z,1.20
2018-10-11T20:41:05.453Z,1.70
2018-10-11T20:43:34.461Z,1.03
2018-10-11T20:46:03.189Z,1.83
2018-10-11T20:48:32.007Z,1.70
2018-10-11T20:51:00.867Z,1.70
2018-10-11T20:53:29.665Z,0.90
2018-10-11T20:55:58.556Z,2.20
2018-10-11T20:58:32.003Z,1.30
2018-10-11T21:01:01.028Z,1.50
2018-10-11T21:03:29.876Z,1.43
2018-10-11T21:05:58.732Z,1.70
2018-10-11T21:08:27.589Z,1.40
2018-10-11T21:10:56.380Z,1.43
2018-10-11T21:13:25.298Z,2.37
2018-10-11T21:15:54.084Z,2.17
2018-10-11T21:18:22.991Z,1.57
2018-10-11T21:20:51.859Z,1.33
2018-10-11T21:23:20.732Z,1.67
2018-10-11T21:25:49.584Z,1.63
2018-10-11T21:28:18.490Z,1.33
2018-10-11T21:30:47.237Z,1.70
2018-10-11T21:33:16.061Z,1.50
2018-10-11T21:35:44.910Z,1.53
2018-10-11T21:38:13.801Z,1.57
2018-10-11T21:40:42.656Z,1.53
2018-10-11T21:43:11.486Z,1.37
2018-10-11T21:45:40.450Z,1.50
2018-10-11T21:48:09.341Z,1.93
2018-10-11T21:50:38.130Z,1.50
2018-10-11T21:53:06.953Z,2.70
2018-10-11T21:55:35.829Z,1.90
2018-10-11T21:58:04.703Z,1.60
2018-10-11T22:00:38.853Z,2.30
2018-10-11T22:03:07.634Z,1.77
2018-10-11T22:05:36.438Z,1.70
2018-10-11T22:08:05.332Z,1.90
2018-10-11T22:10:34.161Z,2.60
2018-10-11T22:13:02.976Z,2.53
2018-10-11T22:15:31.789Z,1.93
2018-10-11T22:18:00.594Z,3.17
2018-10-11T22:20:29.444Z,2.40
2018-10-11T22:22:58.330Z,3.17
2018-10-11T22:25:28.348Z,2.83
2018-10-11T22:27:57.418Z,2.47
2018-10-11T22:30:26.237Z,2.27
2018-10-11T22:32:55.512Z,3.23
2018-10-11T22:35:24.532Z,2.63
2018-10-11T22:37:58.006Z,2.60
2018-10-11T22:40:27.317Z,3.13
2018-10-11T22:42:57.042Z,2.77
2018-10-11T22:45:26.722Z,2.90
2018-10-11T22:47:56.356Z,2.90
2018-10-11T22:50:26.408Z,2.73
2018-10-11T22:52:55.881Z,2.27
2018-10-11T22:55:25.713Z,2.63
2018-10-11T22:57:55.382Z,3.23
2018-10-11T23:00:24.853Z,3.33
2018-10-11T23:02:53.840Z,2.60
2018-10-11T23:05:22.975Z,2.40
2018-10-11T23:07:51.834Z,4.03
2018-10-11T23:10:20.766Z,3.60
2018-10-11T23:12:49.549Z,2.80
2018-10-11T23:15:18.422Z,2.60
2018-10-11T23:17:47.237Z,3.07
2018-10-11T23:20:16.032Z,3.00
2018-10-11T23:22:44.858Z,2.57
2018-10-11T23:25:13.646Z,2.43
2018-10-11T23:27:42.493Z,3.53
2018-10-11T23:30:12.318Z,3.20
2018-10-11T23:32:41.952Z,4.17
2018-10-11T23:35:11.325Z,2.57
2018-10-11T23:37:40.417Z,2.10
2018-10-11T23:40:10.435Z,2.83
2018-10-11T23:42:39.739Z,3.20
2018-10-11T23:45:09.578Z,4.07
2018-10-11T23:47:38.396Z,3.10
2018-10-11T23:50:07.336Z,3.47
2018-10-11T23:52:36.150Z,2.93
2018-10-11T23:55:05.865Z,2.40
2018-10-11T23:57:34.750Z,3.33
